Portway Acres, Texas
Current Conditions -  °F | °C
As of 6:53 AM on Saturday 25 Oct 2014 (Local Time) from KBRO Reporting Station
Clear Clear  
Wind Chill: 65°   Ceiling: Unl
Heat Index: 65°   Visibility: 7mi
Dew Point: 63°   Wind: 0mph
Humidity: 93%   Direction: NA
Pressure: 30.12"   Gusts: NA
Location:  26.0002°N, 97.5729°W
Report Text: KBRO 251153Z 00000KT 7SM CLR 18/17 A3012 RMK AO2 SLP198 T01830172 10200 20178 52002
Loading
Personal Weather Stations






























Interactive Weather Map
Tropical Storm Tracking
New forecast layout! Learn more

10-Day Weather Forecast

Advertisements
Track Severe Weather on mobile